createdAt,value
2017-08-07T00:02:04.742Z,11.90
2017-08-07T00:04:32.201Z,13.00
2017-08-07T00:06:59.673Z,8.20
2017-08-07T00:09:27.135Z,6.73
2017-08-07T00:11:54.601Z,7.77
2017-08-07T00:14:22.078Z,7.90
2017-08-07T00:16:49.529Z,11.93
2017-08-07T00:19:16.980Z,13.23
2017-08-07T00:21:44.458Z,20.23
2017-08-07T00:24:11.931Z,18.47
2017-08-07T00:26:39.426Z,14.93
2017-08-07T00:29:06.890Z,22.03
2017-08-07T00:31:34.342Z,15.20
2017-08-07T00:34:01.843Z,15.80
2017-08-07T00:36:29.313Z,7.10
2017-08-07T00:38:56.770Z,8.30
2017-08-07T00:41:24.242Z,8.53
2017-08-07T00:43:51.703Z,13.67
2017-08-07T00:46:19.153Z,8.40
2017-08-07T00:48:46.838Z,8.33
2017-08-07T00:51:14.297Z,8.50
2017-08-07T00:53:41.754Z,10.97
2017-08-07T00:56:09.238Z,10.07
2017-08-07T00:58:36.694Z,11.37
2017-08-07T01:01:04.170Z,10.40
2017-08-07T01:03:31.625Z,11.30
2017-08-07T01:05:59.106Z,13.03
2017-08-07T01:08:26.563Z,15.30
2017-08-07T01:10:54.057Z,14.73
2017-08-07T01:13:21.522Z,15.13
2017-08-07T01:15:48.989Z,20.07
2017-08-07T01:18:16.478Z,18.73
2017-08-07T01:20:43.934Z,19.50
2017-08-07T01:23:11.418Z,17.53
2017-08-07T01:25:38.869Z,17.67
2017-08-07T01:28:06.374Z,23.07
2017-08-07T01:30:33.830Z,18.80
2017-08-07T01:33:01.297Z,16.70
2017-08-07T01:35:28.790Z,15.23
2017-08-07T01:37:56.251Z,18.13
2017-08-07T01:40:23.697Z,14.87
2017-08-07T01:42:51.173Z,12.93
2017-08-07T01:45:18.635Z,15.80
2017-08-07T01:47:46.134Z,14.10
2017-08-07T01:50:13.614Z,15.97
2017-08-07T01:52:41.070Z,16.80
2017-08-07T01:55:08.554Z,17.30
2017-08-07T01:57:36.006Z,15.23
2017-08-07T02:00:04.234Z,31.97
2017-08-07T02:02:31.714Z,18.53
2017-08-07T02:04:59.166Z,23.90
2017-08-07T02:07:26.654Z,19.73
2017-08-07T02:09:54.118Z,18.47
2017-08-07T02:12:21.616Z,17.50
2017-08-07T02:14:49.086Z,19.60
2017-08-07T02:17:16.546Z,21.97
2017-08-07T02:19:44.074Z,17.90
2017-08-07T02:22:11.530Z,25.63
2017-08-07T02:24:38.994Z,16.17
2017-08-07T02:27:06.474Z,19.80
2017-08-07T02:29:33.966Z,21.93
2017-08-07T02:32:01.478Z,18.50
2017-08-07T02:34:28.925Z,21.63
2017-08-07T02:36:56.390Z,20.07
2017-08-07T02:39:23.890Z,23.40
2017-08-07T02:41:51.354Z,15.60
2017-08-07T02:44:18.822Z,16.70
2017-08-07T02:46:46.310Z,19.30
2017-08-07T02:49:13.795Z,16.10
2017-08-07T02:51:41.245Z,20.90
2017-08-07T02:54:08.738Z,23.47
2017-08-07T02:56:36.233Z,17.57
2017-08-07T02:59:04.462Z,22.70
2017-08-07T03:01:31.922Z,24.73
2017-08-07T03:03:59.417Z,19.87
2017-08-07T03:06:26.890Z,21.37
2017-08-07T03:08:55.120Z,18.40
2017-08-07T03:11:22.618Z,21.83
2017-08-07T03:13:50.078Z,19.43
2017-08-07T03:16:18.303Z,17.10
2017-08-07T03:18:45.801Z,18.10
2017-08-07T03:21:14.028Z,19.50
2017-08-07T03:23:41.486Z,18.70
2017-08-07T03:26:08.966Z,22.37
2017-08-07T03:28:36.433Z,22.93
2017-08-07T03:31:03.927Z,21.70
2017-08-07T03:33:31.398Z,18.90
2017-08-07T03:35:58.862Z,15.83
2017-08-07T03:38:26.342Z,19.87
2017-08-07T03:40:53.809Z,18.70
2017-08-07T03:43:21.306Z,22.30
2017-08-07T03:45:48.757Z,34.40
2017-08-07T03:48:16.233Z,20.83
2017-08-07T03:50:43.714Z,27.63
2017-08-07T03:53:11.210Z,29.03
2017-08-07T03:55:38.670Z,29.43
2017-08-07T03:58:06.126Z,23.57
2017-08-07T04:00:33.605Z,24.77
2017-08-07T04:03:01.085Z,18.43
2017-08-07T04:05:28.567Z,20.70
2017-08-07T04:07:56.029Z,19.80
2017-08-07T04:10:23.517Z,22.70
2017-08-07T04:12:50.977Z,25.40
2017-08-07T04:15:18.434Z,27.57
2017-08-07T04:17:45.938Z,21.30
2017-08-07T04:20:13.402Z,23.83
2017-08-07T04:22:40.853Z,22.83
2017-08-07T04:25:08.345Z,22.43
2017-08-07T04:27:35.797Z,22.63
2017-08-07T04:30:03.263Z,26.40
2017-08-07T04:32:30.762Z,23.73
2017-08-07T04:34:58.222Z,19.93
2017-08-07T04:37:25.689Z,19.07
2017-08-07T04:39:53.178Z,18.50
2017-08-07T04:42:20.710Z,16.13
2017-08-07T04:44:48.178Z,14.83
2017-08-07T04:47:16.391Z,28.40
2017-08-07T04:49:43.881Z,21.27
2017-08-07T04:52:11.348Z,15.20
2017-08-07T04:54:38.799Z,18.93
2017-08-07T04:57:06.278Z,15.00
2017-08-07T04:59:34.503Z,16.30
2017-08-07T05:02:01.991Z,15.83
2017-08-07T05:04:29.446Z,18.03
2017-08-07T05:06:56.978Z,16.40
2017-08-07T05:09:24.439Z,16.97
2017-08-07T05:11:51.894Z,14.33
2017-08-07T05:14:19.373Z,17.47
2017-08-07T05:16:46.861Z,16.03
2017-08-07T05:19:14.317Z,13.40
2017-08-07T05:21:41.809Z,17.23
2017-08-07T05:24:09.262Z,17.33
2017-08-07T05:26:36.718Z,15.20
2017-08-07T05:29:04.206Z,13.33
2017-08-07T05:31:31.661Z,14.37
2017-08-07T05:33:59.113Z,17.07
2017-08-07T05:36:26.597Z,20.60
2017-08-07T05:38:54.079Z,19.40
2017-08-07T05:41:21.569Z,22.23
2017-08-07T05:43:49.021Z,23.83
2017-08-07T05:46:16.478Z,16.50
2017-08-07T05:48:43.953Z,19.20
2017-08-07T05:51:11.406Z,17.23
2017-08-07T05:53:38.894Z,19.60
2017-08-07T05:56:06.356Z,18.93
2017-08-07T05:58:33.849Z,18.30
2017-08-07T06:01:02.080Z,16.00
2017-08-07T06:03:29.542Z,20.83
2017-08-07T06:05:57.018Z,19.93
2017-08-07T06:08:24.491Z,20.53
2017-08-07T06:10:52.741Z,17.47
2017-08-07T06:13:20.210Z,17.43
2017-08-07T06:15:47.685Z,18.70
2017-08-07T06:18:15.910Z,26.57
2017-08-07T06:20:43.403Z,21.30
2017-08-07T06:23:10.857Z,16.53
2017-08-07T06:25:39.097Z,22.23
2017-08-07T06:28:06.587Z,19.10
2017-08-07T06:30:34.043Z,23.97
2017-08-07T06:33:01.507Z,19.33
2017-08-07T06:35:28.993Z,26.47
2017-08-07T06:37:56.454Z,16.30
2017-08-07T06:40:25.702Z,20.13
2017-08-07T06:42:53.182Z,19.67
2017-08-07T06:45:20.651Z,20.10
2017-08-07T06:47:48.136Z,21.13
2017-08-07T06:50:15.598Z,25.17
2017-08-07T06:52:43.082Z,21.60
2017-08-07T06:55:10.537Z,18.73
2017-08-07T06:57:38.000Z,19.27
2017-08-07T07:00:05.477Z,23.17
2017-08-07T07:02:32.961Z,30.87
2017-08-07T07:05:00.443Z,18.57
2017-08-07T07:07:27.925Z,19.27
2017-08-07T07:09:55.418Z,20.77
2017-08-07T07:12:22.873Z,22.10
2017-08-07T07:14:50.348Z,17.03
2017-08-07T07:17:17.822Z,28.23
2017-08-07T07:19:45.329Z,22.67
2017-08-07T07:22:12.783Z,17.63
2017-08-07T07:24:40.238Z,19.13
2017-08-07T07:27:07.725Z,18.20
2017-08-07T07:29:35.183Z,18.53
2017-08-07T07:32:02.645Z,19.93
2017-08-07T07:34:30.142Z,16.33
2017-08-07T07:36:58.354Z,19.83
2017-08-07T07:39:25.818Z,16.60
2017-08-07T07:41:53.309Z,14.93
2017-08-07T07:44:20.775Z,14.87
2017-08-07T07:46:48.281Z,18.57
2017-08-07T07:49:15.733Z,17.73
2017-08-07T07:51:43.193Z,16.47
2017-08-07T07:54:10.683Z,19.03
2017-08-07T07:56:38.138Z,14.43
2017-08-07T07:59:05.635Z,17.53
2017-08-07T08:01:33.094Z,14.90
2017-08-07T08:04:01.314Z,14.00
2017-08-07T08:06:28.832Z,20.43
2017-08-07T08:08:56.294Z,16.10
2017-08-07T08:11:23.757Z,11.07
2017-08-07T08:13:51.249Z,15.53
2017-08-07T08:16:18.702Z,11.67
2017-08-07T08:18:46.154Z,12.10
2017-08-07T08:21:13.645Z,16.97
2017-08-07T08:23:41.101Z,18.40
2017-08-07T08:26:08.582Z,12.57
2017-08-07T08:28:36.056Z,12.03
2017-08-07T08:31:03.551Z,17.87
2017-08-07T08:33:31.005Z,12.53
2017-08-07T08:35:58.457Z,16.17
2017-08-07T08:38:25.936Z,16.57
2017-08-07T08:40:53.398Z,14.50
2017-08-07T08:43:20.898Z,9.43
2017-08-07T08:45:48.353Z,16.93
2017-08-07T08:48:16.578Z,10.90
2017-08-07T08:50:44.053Z,16.17
2017-08-07T08:53:11.505Z,13.80
2017-08-07T08:55:38.990Z,18.17
2017-08-07T08:58:06.484Z,15.07
2017-08-07T09:00:33.933Z,13.27
2017-08-07T09:03:01.391Z,15.63
2017-08-07T09:05:28.861Z,11.77
2017-08-07T09:07:56.341Z,16.47
2017-08-07T09:10:23.821Z,12.23
2017-08-07T09:12:51.277Z,10.70
2017-08-07T09:15:18.745Z,10.23
2017-08-07T09:17:46.198Z,7.00
2017-08-07T09:20:13.670Z,11.17
2017-08-07T09:22:41.160Z,14.83
2017-08-07T09:25:08.614Z,15.27
2017-08-07T09:27:36.069Z,14.00
2017-08-07T09:30:03.546Z,14.33
2017-08-07T09:32:31.010Z,17.80
2017-08-07T09:34:58.490Z,22.00
2017-08-07T09:37:25.974Z,19.00
2017-08-07T09:39:53.447Z,21.13
2017-08-07T09:42:21.689Z,19.40
2017-08-07T09:44:49.137Z,15.77
2017-08-07T09:47:16.639Z,10.40
2017-08-07T09:49:44.868Z,14.97
2017-08-07T09:52:12.330Z,15.73
2017-08-07T09:54:39.816Z,16.13
2017-08-07T09:57:07.277Z,12.67
2017-08-07T09:59:34.775Z,14.27
2017-08-07T10:02:02.217Z,18.83
2017-08-07T10:04:30.441Z,15.53
2017-08-07T10:06:57.938Z,11.53
2017-08-07T10:09:26.154Z,9.50
2017-08-07T10:11:53.605Z,9.97
2017-08-07T10:14:21.081Z,9.67
2017-08-07T10:16:48.545Z,16.23
2017-08-07T10:19:16.031Z,9.27
2017-08-07T10:21:43.595Z,16.87
2017-08-07T10:24:11.051Z,12.40
2017-08-07T10:26:38.534Z,10.30
2017-08-07T10:29:06.782Z,13.50
2017-08-07T10:31:34.234Z,23.03
2017-08-07T10:34:01.682Z,9.00
2017-08-07T10:36:29.176Z,12.27
2017-08-07T10:38:57.422Z,11.80
2017-08-07T10:41:24.894Z,9.73
2017-08-07T10:43:52.337Z,23.57
2017-08-07T10:46:19.866Z,18.90
2017-08-07T10:48:47.363Z,9.57
2017-08-07T10:51:14.834Z,12.30
2017-08-07T10:53:42.282Z,6.07
2017-08-07T10:56:09.763Z,7.87
2017-08-07T10:58:37.225Z,13.40
2017-08-07T11:01:04.681Z,8.10
2017-08-07T11:03:32.153Z,8.10
2017-08-07T11:05:59.646Z,6.57
2017-08-07T11:08:27.100Z,8.70
2017-08-07T11:10:54.559Z,8.33
2017-08-07T11:13:22.046Z,6.53
2017-08-07T11:15:49.503Z,9.83
2017-08-07T11:18:16.951Z,6.30
2017-08-07T11:20:44.425Z,7.80
2017-08-07T11:23:11.905Z,5.23
2017-08-07T11:25:39.367Z,6.20
2017-08-07T11:28:06.847Z,5.27
2017-08-07T11:30:34.302Z,5.37
2017-08-07T11:33:01.797Z,8.87
2017-08-07T11:35:29.268Z,11.27
2017-08-07T11:37:56.727Z,5.70
2017-08-07T11:40:24.210Z,8.03
2017-08-07T11:42:51.737Z,6.27
2017-08-07T11:45:19.226Z,7.27
2017-08-07T11:47:46.688Z,7.40
2017-08-07T11:50:14.183Z,8.33
2017-08-07T11:52:41.647Z,4.40
2017-08-07T11:55:09.109Z,16.03
2017-08-07T11:57:36.586Z,8.07
2017-08-07T12:00:04.035Z,4.80
2017-08-07T12:02:31.529Z,7.57
2017-08-07T12:04:59.750Z,18.83
2017-08-07T12:07:27.201Z,7.30
2017-08-07T12:09:54.682Z,5.77
2017-08-07T12:12:22.139Z,12.33
2017-08-07T12:14:49.624Z,7.97
2017-08-07T12:17:17.103Z,10.90
2017-08-07T12:19:45.355Z,5.13
2017-08-07T12:22:12.801Z,4.93
2017-08-07T12:24:40.262Z,12.20
2017-08-07T12:27:07.748Z,4.43
2017-08-07T12:29:35.974Z,8.13
2017-08-07T12:32:03.460Z,8.67
2017-08-07T12:34:30.958Z,8.20
2017-08-07T12:36:58.474Z,4.33
2017-08-07T12:39:25.918Z,6.17
2017-08-07T12:41:53.370Z,9.60
2017-08-07T12:44:20.862Z,10.27
2017-08-07T12:46:48.312Z,7.40
2017-08-07T12:49:15.793Z,15.53
2017-08-07T12:51:43.330Z,5.97
2017-08-07T12:54:10.785Z,6.43
2017-08-07T12:56:38.238Z,11.67
2017-08-07T12:59:05.734Z,7.07
2017-08-07T13:01:33.957Z,10.37
2017-08-07T13:04:01.418Z,4.77
2017-08-07T13:06:28.895Z,6.87
2017-08-07T13:08:56.375Z,9.00
2017-08-07T13:11:24.647Z,13.70
2017-08-07T13:13:52.869Z,6.23
2017-08-07T13:16:20.329Z,5.93
2017-08-07T13:18:47.831Z,6.77
2017-08-07T13:21:15.286Z,5.60
2017-08-07T13:23:42.745Z,8.60
2017-08-07T13:26:10.231Z,8.50
2017-08-07T13:28:38.454Z,5.43
2017-08-07T13:31:05.910Z,5.50
2017-08-07T13:33:33.387Z,8.20
2017-08-07T13:36:00.842Z,8.23
2017-08-07T13:38:28.322Z,4.10
2017-08-07T13:40:56.546Z,7.40
2017-08-07T13:43:24.030Z,6.03
2017-08-07T13:45:51.490Z,4.77
2017-08-07T13:48:18.978Z,8.00
2017-08-07T13:50:46.439Z,9.87
2017-08-07T13:53:14.696Z,3.30
2017-08-07T13:55:42.150Z,4.37
2017-08-07T13:58:09.599Z,7.63
2017-08-07T14:00:37.097Z,8.80
2017-08-07T14:03:04.566Z,4.10
2017-08-07T14:05:32.037Z,10.83
2017-08-07T14:07:59.527Z,7.20
2017-08-07T14:10:27.036Z,6.83
2017-08-07T14:12:54.495Z,5.30
2017-08-07T14:15:21.941Z,3.50
2017-08-07T14:17:49.433Z,9.40
2017-08-07T14:20:16.890Z,8.20
2017-08-07T14:22:44.343Z,3.73
2017-08-07T14:25:11.819Z,3.20
2017-08-07T14:27:39.270Z,3.33
2017-08-07T14:30:06.774Z,7.63
2017-08-07T14:32:34.995Z,4.60
2017-08-07T14:35:02.458Z,4.90
2017-08-07T14:37:29.979Z,5.20
2017-08-07T14:39:58.193Z,3.63
2017-08-07T14:42:25.650Z,3.80
2017-08-07T14:44:53.132Z,4.10
2017-08-07T14:47:20.577Z,4.10
2017-08-07T14:49:48.041Z,3.93
2017-08-07T14:52:15.508Z,3.43
2017-08-07T14:54:42.965Z,3.40
2017-08-07T14:57:10.489Z,3.77
2017-08-07T14:59:37.957Z,7.27
2017-08-07T15:02:05.405Z,3.03
2017-08-07T15:04:32.893Z,3.07
2017-08-07T15:07:00.370Z,2.17
2017-08-07T15:09:27.827Z,4.40
2017-08-07T15:11:55.303Z,1.83
2017-08-07T15:14:23.519Z,3.00
2017-08-07T15:16:50.999Z,1.20
2017-08-07T15:19:18.480Z,1.80
2017-08-07T15:21:45.981Z,4.80
2017-08-07T15:24:13.484Z,5.73
2017-08-07T15:26:40.934Z,1.67
2017-08-07T15:29:08.387Z,2.17
2017-08-07T15:31:35.884Z,5.83
2017-08-07T15:34:03.357Z,4.20
2017-08-07T15:36:30.805Z,3.17
2017-08-07T15:38:58.279Z,2.53
2017-08-07T15:41:25.726Z,3.23
2017-08-07T15:43:53.214Z,1.40
2017-08-07T15:46:20.658Z,3.10
2017-08-07T15:48:48.114Z,1.80
2017-08-07T15:51:15.582Z,5.60
2017-08-07T15:53:43.040Z,4.10
2017-08-07T15:56:10.518Z,2.87
2017-08-07T15:58:37.974Z,2.77
2017-08-07T16:01:05.443Z,2.53
2017-08-07T16:03:32.937Z,5.37
2017-08-07T16:06:00.384Z,4.67
2017-08-07T16:08:27.841Z,2.90
2017-08-07T16:10:55.314Z,6.20
2017-08-07T16:13:22.799Z,5.63
2017-08-07T16:15:50.254Z,4.13
2017-08-07T16:18:18.481Z,5.73
2017-08-07T16:20:45.938Z,18.67
2017-08-07T16:23:13.421Z,4.30
2017-08-07T16:25:40.878Z,2.80
2017-08-07T16:28:08.338Z,6.23
2017-08-07T16:30:35.823Z,5.83
2017-08-07T16:33:03.274Z,8.63
2017-08-07T16:35:30.726Z,3.87
2017-08-07T16:37:58.966Z,9.10
2017-08-07T16:40:26.425Z,9.40
2017-08-07T16:42:53.912Z,2.40
2017-08-07T16:45:22.142Z,12.30
2017-08-07T16:47:49.598Z,6.40
2017-08-07T16:50:17.074Z,8.67
2017-08-07T16:52:44.529Z,10.77
2017-08-07T16:55:11.998Z,6.13
2017-08-07T16:57:39.450Z,5.20
2017-08-07T17:00:06.942Z,8.70
2017-08-07T17:02:35.194Z,7.33
2017-08-07T17:05:02.674Z,7.93
2017-08-07T17:07:30.915Z,6.17
2017-08-07T17:09:58.366Z,4.60
2017-08-07T17:12:25.870Z,5.77
2017-08-07T17:14:53.325Z,5.73
2017-08-07T17:17:21.550Z,7.60
2017-08-07T17:19:49.039Z,5.70
2017-08-07T17:22:16.533Z,2.33
2017-08-07T17:24:43.982Z,5.00
2017-08-07T17:27:12.257Z,6.83
2017-08-07T17:29:39.705Z,3.40
2017-08-07T17:32:07.917Z,5.97
2017-08-07T17:34:35.402Z,6.70
2017-08-07T17:37:02.865Z,4.30
2017-08-07T17:39:30.316Z,4.63
2017-08-07T17:41:57.806Z,10.83
2017-08-07T17:44:25.253Z,7.50
2017-08-07T17:46:52.705Z,7.10
2017-08-07T17:49:20.197Z,5.77
2017-08-07T17:51:47.649Z,4.43
2017-08-07T17:54:15.101Z,3.27
2017-08-07T17:56:43.361Z,11.30
2017-08-07T17:59:10.810Z,5.37
2017-08-07T18:01:38.262Z,7.97
2017-08-07T18:04:05.748Z,9.33
2017-08-07T18:06:33.213Z,9.50
2017-08-07T18:09:00.671Z,6.00
2017-08-07T18:11:28.174Z,4.47
2017-08-07T18:13:55.618Z,5.03
2017-08-07T18:16:23.076Z,9.80
2017-08-07T18:18:51.405Z,5.20
2017-08-07T18:21:18.861Z,5.30
2017-08-07T18:23:46.313Z,8.70
2017-08-07T18:26:13.803Z,11.07
2017-08-07T18:28:41.262Z,16.53
2017-08-07T18:31:08.714Z,12.47
2017-08-07T18:33:36.189Z,7.30
2017-08-07T18:36:03.673Z,7.30
2017-08-07T18:38:31.166Z,4.80
2017-08-07T18:40:58.624Z,6.47
2017-08-07T18:43:26.074Z,6.03
2017-08-07T18:45:53.554Z,5.93
2017-08-07T18:48:21.024Z,9.80
2017-08-07T18:50:48.482Z,8.20
2017-08-07T18:53:15.953Z,9.27
2017-08-07T18:55:43.422Z,7.83
2017-08-07T18:58:10.894Z,11.47
2017-08-07T19:00:38.356Z,8.40
2017-08-07T19:03:05.835Z,10.43
2017-08-07T19:05:33.320Z,12.00
2017-08-07T19:08:00.886Z,12.13
2017-08-07T19:10:29.097Z,16.37
2017-08-07T19:12:56.572Z,15.13
2017-08-07T19:15:24.032Z,4.47
2017-08-07T19:17:51.506Z,5.07
2017-08-07T19:20:18.982Z,12.17
2017-08-07T19:22:46.458Z,12.80
2017-08-07T19:25:14.687Z,8.67
2017-08-07T19:27:42.159Z,5.93
2017-08-07T19:30:09.600Z,5.43
2017-08-07T19:32:37.089Z,6.20
2017-08-07T19:35:04.551Z,7.83
2017-08-07T19:37:32.002Z,10.77
2017-08-07T19:39:59.503Z,7.40
2017-08-07T19:42:26.957Z,5.93
2017-08-07T19:44:54.402Z,9.20
2017-08-07T19:47:21.937Z,26.53
2017-08-07T19:49:49.393Z,19.53
2017-08-07T19:52:16.849Z,28.87
2017-08-07T19:54:44.328Z,13.63
2017-08-07T19:57:11.777Z,9.73
2017-08-07T19:59:39.269Z,11.03
2017-08-07T20:02:06.729Z,10.50
2017-08-07T20:04:34.185Z,10.20
2017-08-07T20:07:01.662Z,8.67
2017-08-07T20:09:29.119Z,9.83
2017-08-07T20:11:56.622Z,15.03
2017-08-07T20:14:24.090Z,14.30
2017-08-07T20:16:52.316Z,12.10
2017-08-07T20:19:19.801Z,9.13
2017-08-07T20:21:47.254Z,5.90
2017-08-07T20:24:14.702Z,8.47
2017-08-07T20:26:42.186Z,16.83
2017-08-07T20:29:09.657Z,6.27
2017-08-07T20:31:37.910Z,6.20
2017-08-07T20:34:05.370Z,13.53
2017-08-07T20:36:32.826Z,5.90
2017-08-07T20:39:00.305Z,13.33
2017-08-07T20:41:28.542Z,10.37
2017-08-07T20:43:56.030Z,10.67
2017-08-07T20:46:23.500Z,5.20
2017-08-07T20:48:50.986Z,13.10
2017-08-07T20:51:18.450Z,16.13
2017-08-07T20:53:45.901Z,13.40
2017-08-07T20:56:13.377Z,15.80
2017-08-07T20:58:40.866Z,10.60
2017-08-07T21:01:08.326Z,12.00
2017-08-07T21:03:35.774Z,12.53
2017-08-07T21:06:03.250Z,9.53
2017-08-07T21:08:30.737Z,13.93
2017-08-07T21:10:58.185Z,13.73
2017-08-07T21:13:25.644Z,19.73
2017-08-07T21:15:53.129Z,12.73
2017-08-07T21:18:20.586Z,13.83
2017-08-07T21:20:48.047Z,28.57
2017-08-07T21:23:15.533Z,16.73
2017-08-07T21:25:42.994Z,15.80
2017-08-07T21:28:10.449Z,14.03
2017-08-07T21:30:37.928Z,15.17
2017-08-07T21:33:05.381Z,17.30
2017-08-07T21:35:32.869Z,14.60
2017-08-07T21:38:01.098Z,17.43
2017-08-07T21:40:28.548Z,16.80
2017-08-07T21:42:56.021Z,23.20
2017-08-07T21:45:23.478Z,14.00
2017-08-07T21:47:50.958Z,28.67
2017-08-07T21:50:18.433Z,12.80
2017-08-07T21:52:45.930Z,12.37
2017-08-07T21:55:13.414Z,13.40
2017-08-07T21:57:40.858Z,15.37
2017-08-07T22:00:08.338Z,12.13
2017-08-07T22:02:35.818Z,9.70
2017-08-07T22:05:03.277Z,16.83
2017-08-07T22:07:30.755Z,11.73
2017-08-07T22:09:58.207Z,13.63
2017-08-07T22:12:25.681Z,18.30
2017-08-07T22:14:53.138Z,14.70
2017-08-07T22:17:20.584Z,13.83
2017-08-07T22:19:48.069Z,14.33
2017-08-07T22:22:15.547Z,24.50
2017-08-07T22:24:43.029Z,13.03
2017-08-07T22:27:10.472Z,10.73
2017-08-07T22:29:37.949Z,17.10
2017-08-07T22:32:05.421Z,12.47
2017-08-07T22:34:33.670Z,10.47
2017-08-07T22:37:01.190Z,17.40
2017-08-07T22:39:29.458Z,9.90
2017-08-07T22:41:56.919Z,15.17
2017-08-07T22:44:24.377Z,19.27
2017-08-07T22:46:51.853Z,13.00
2017-08-07T22:49:19.330Z,11.27
2017-08-07T22:51:46.781Z,11.40
2017-08-07T22:54:14.283Z,11.80
2017-08-07T22:56:41.748Z,18.70
2017-08-07T22:59:09.210Z,14.60
2017-08-07T23:01:36.690Z,12.33
2017-08-07T23:04:04.146Z,14.43
2017-08-07T23:06:31.630Z,23.03
2017-08-07T23:08:59.093Z,11.40
2017-08-07T23:11:26.569Z,15.70
2017-08-07T23:13:54.055Z,12.47
2017-08-07T23:16:21.538Z,16.60
2017-08-07T23:18:48.998Z,13.90
2017-08-07T23:21:16.486Z,20.80
2017-08-07T23:23:43.946Z,14.93
2017-08-07T23:26:11.434Z,14.43
2017-08-07T23:28:39.656Z,12.63
2017-08-07T23:31:07.133Z,10.77
2017-08-07T23:33:34.593Z,13.10
2017-08-07T23:36:02.086Z,11.73
2017-08-07T23:38:30.361Z,10.50
2017-08-07T23:40:58.590Z,17.90
2017-08-07T23:43:26.081Z,20.13
2017-08-07T23:45:53.542Z,12.83
2017-08-07T23:48:21.026Z,15.10
2017-08-07T23:50:48.494Z,17.40
2017-08-07T23:53:15.973Z,16.00
2017-08-07T23:55:43.458Z,13.70
2017-08-07T23:58:10.917Z,12.17
